sensor_id;sensor_type;location;lat;lon;timestamp;P1;durP1;ratioP1;P2;durP2;ratioP2
62796;SDS011;48839;48.546;-4.178;2022-11-03T00:01:49;9.60;;;2.20;;
62796;SDS011;48839;48.546;-4.178;2022-11-03T00:04:18;12.02;;;2.53;;
62796;SDS011;48839;48.546;-4.178;2022-11-03T00:06:45;10.07;;;2.30;;
62796;SDS011;48839;48.546;-4.178;2022-11-03T00:09:11;11.93;;;2.10;;
62796;SDS011;48839;48.546;-4.178;2022-11-03T00:11:38;9.73;;;2.38;;
62796;SDS011;48839;48.546;-4.178;2022-11-03T00:14:05;7.22;;;1.77;;
62796;SDS011;48839;48.546;-4.178;2022-11-03T00:16:31;10.82;;;2.75;;
62796;SDS011;48839;48.546;-4.178;2022-11-03T00:18:57;15.85;;;2.78;;
62796;SDS011;48839;48.546;-4.178;2022-11-03T00:21:23;8.13;;;1.88;;
62796;SDS011;48839;48.546;-4.178;2022-11-03T00:23:49;6.35;;;1.60;;
62796;SDS011;48839;48.546;-4.178;2022-11-03T00:26:17;7.85;;;1.85;;
62796;SDS011;48839;48.546;-4.178;2022-11-03T00:28:45;13.23;;;4.50;;
62796;SDS011;48839;48.546;-4.178;2022-11-03T00:31:12;17.85;;;7.43;;
62796;SDS011;48839;48.546;-4.178;2022-11-03T00:33:39;17.25;;;4.75;;
62796;SDS011;48839;48.546;-4.178;2022-11-03T00:36:05;20.48;;;8.38;;
62796;SDS011;48839;48.546;-4.178;2022-11-03T00:38:32;25.98;;;11.00;;
62796;SDS011;48839;48.546;-4.178;2022-11-03T00:40:59;15.35;;;2.85;;
62796;SDS011;48839;48.546;-4.178;2022-11-03T00:43:26;35.80;;;11.88;;
62796;SDS011;48839;48.546;-4.178;2022-11-03T00:45:53;42.35;;;16.00;;
62796;SDS011;48839;48.546;-4.178;2022-11-03T00:48:19;18.98;;;10.23;;
62796;SDS011;48839;48.546;-4.178;2022-11-03T00:53:26;14.32;;;4.80;;
62796;SDS011;48839;48.546;-4.178;2022-11-03T00:55:52;19.90;;;3.40;;
62796;SDS011;48839;48.546;-4.178;2022-11-03T00:58:18;15.27;;;4.28;;
62796;SDS011;48839;48.546;-4.178;2022-11-03T01:00:44;25.60;;;8.15;;
62796;SDS011;48839;48.546;-4.178;2022-11-03T01:03:10;19.08;;;5.35;;
62796;SDS011;48839;48.546;-4.178;2022-11-03T01:05:40;18.25;;;3.60;;
62796;SDS011;48839;48.546;-4.178;2022-11-03T01:08:30;17.27;;;5.88;;
62796;SDS011;48839;48.546;-4.178;2022-11-03T01:11:02;21.58;;;3.72;;
62796;SDS011;48839;48.546;-4.178;2022-11-03T01:13:47;17.17;;;4.18;;
62796;SDS011;48839;48.546;-4.178;2022-11-03T01:16:13;9.80;;;3.28;;
62796;SDS011;48839;48.546;-4.178;2022-11-03T01:18:39;11.98;;;3.30;;
62796;SDS011;48839;48.546;-4.178;2022-11-03T01:21:05;20.50;;;3.42;;
62796;SDS011;48839;48.546;-4.178;2022-11-03T01:23:33;14.82;;;3.17;;
62796;SDS011;48839;48.546;-4.178;2022-11-03T01:26:02;18.25;;;4.70;;
62796;SDS011;48839;48.546;-4.178;2022-11-03T01:28:29;10.38;;;3.13;;
62796;SDS011;48839;48.546;-4.178;2022-11-03T01:30:55;13.55;;;3.70;;
62796;SDS011;48839;48.546;-4.178;2022-11-03T01:33:21;20.08;;;3.85;;
62796;SDS011;48839;48.546;-4.178;2022-11-03T01:35:51;15.88;;;3.38;;
62796;SDS011;48839;48.546;-4.178;2022-11-03T01:38:17;17.33;;;3.58;;
62796;SDS011;48839;48.546;-4.178;2022-11-03T01:40:43;11.93;;;3.00;;
62796;SDS011;48839;48.546;-4.178;2022-11-03T01:43:16;14.73;;;3.30;;
62796;SDS011;48839;48.546;-4.178;2022-11-03T01:45:42;17.30;;;3.90;;
62796;SDS011;48839;48.546;-4.178;2022-11-03T01:48:08;13.45;;;3.63;;
62796;SDS011;48839;48.546;-4.178;2022-11-03T01:50:36;15.02;;;3.40;;
62796;SDS011;48839;48.546;-4.178;2022-11-03T01:53:02;16.20;;;3.17;;
62796;SDS011;48839;48.546;-4.178;2022-11-03T01:55:29;17.58;;;4.13;;
62796;SDS011;48839;48.546;-4.178;2022-11-03T01:58:01;14.73;;;4.22;;
62796;SDS011;48839;48.546;-4.178;2022-11-03T02:00:29;11.82;;;3.33;;
62796;SDS011;48839;48.546;-4.178;2022-11-03T02:02:55;20.05;;;3.10;;
62796;SDS011;48839;48.546;-4.178;2022-11-03T02:05:21;18.88;;;4.03;;
62796;SDS011;48839;48.546;-4.178;2022-11-03T02:07:55;10.80;;;3.30;;
62796;SDS011;48839;48.546;-4.178;2022-11-03T02:10:22;21.48;;;4.05;;
62796;SDS011;48839;48.546;-4.178;2022-11-03T02:12:49;12.25;;;4.57;;
62796;SDS011;48839;48.546;-4.178;2022-11-03T02:15:15;15.93;;;5.22;;
62796;SDS011;48839;48.546;-4.178;2022-11-03T02:17:42;10.38;;;2.65;;
62796;SDS011;48839;48.546;-4.178;2022-11-03T02:20:14;14.70;;;3.63;;
62796;SDS011;48839;48.546;-4.178;2022-11-03T02:27:35;10.93;;;2.88;;
62796;SDS011;48839;48.546;-4.178;2022-11-03T02:30:01;30.27;;;12.68;;
62796;SDS011;48839;48.546;-4.178;2022-11-03T02:32:28;22.83;;;11.13;;
62796;SDS011;48839;48.546;-4.178;2022-11-03T02:37:50;17.30;;;3.60;;
62796;SDS011;48839;48.546;-4.178;2022-11-03T02:40:20;6.75;;;2.75;;
62796;SDS011;48839;48.546;-4.178;2022-11-03T02:42:47;2.13;;;1.92;;
62796;SDS011;48839;48.546;-4.178;2022-11-03T02:45:16;1.83;;;1.73;;
62796;SDS011;48839;48.546;-4.178;2022-11-03T02:47:43;2.08;;;1.65;;
62796;SDS011;48839;48.546;-4.178;2022-11-03T02:50:10;5.80;;;3.28;;
62796;SDS011;48839;48.546;-4.178;2022-11-03T02:52:40;3.95;;;3.53;;
62796;SDS011;48839;48.546;-4.178;2022-11-03T02:55:17;4.05;;;3.65;;
62796;SDS011;48839;48.546;-4.178;2022-11-03T02:57:49;3.70;;;3.40;;
62796;SDS011;48839;48.546;-4.178;2022-11-03T03:00:18;1.45;;;1.25;;
62796;SDS011;48839;48.546;-4.178;2022-11-03T03:05:10;1.48;;;1.10;;
62796;SDS011;48839;48.546;-4.178;2022-11-03T03:07:40;1.38;;;1.20;;
62796;SDS011;48839;48.546;-4.178;2022-11-03T03:10:11;3.88;;;2.40;;
62796;SDS011;48839;48.546;-4.178;2022-11-03T03:12:38;3.70;;;3.40;;
62796;SDS011;48839;48.546;-4.178;2022-11-03T03:15:06;1.30;;;1.30;;
62796;SDS011;48839;48.546;-4.178;2022-11-03T03:20:02;2.80;;;2.60;;
62796;SDS011;48839;48.546;-4.178;2022-11-03T03:22:33;1.58;;;1.48;;
62796;SDS011;48839;48.546;-4.178;2022-11-03T03:27:30;0.60;;;0.55;;
62796;SDS011;48839;48.546;-4.178;2022-11-03T03:30:00;2.17;;;1.40;;
62796;SDS011;48839;48.546;-4.178;2022-11-03T03:32:27;1.08;;;0.73;;
62796;SDS011;48839;48.546;-4.178;2022-11-03T03:34:55;1.10;;;0.60;;
62796;SDS011;48839;48.546;-4.178;2022-11-03T03:37:23;0.95;;;0.80;;
62796;SDS011;48839;48.546;-4.178;2022-11-03T03:39:51;0.80;;;0.70;;
62796;SDS011;48839;48.546;-4.178;2022-11-03T03:42:18;1.48;;;1.08;;
62796;SDS011;48839;48.546;-4.178;2022-11-03T03:44:45;1.50;;;0.50;;
62796;SDS011;48839;48.546;-4.178;2022-11-03T03:47:22;1.42;;;0.85;;
62796;SDS011;48839;48.546;-4.178;2022-11-03T03:49:48;1.23;;;0.68;;
62796;SDS011;48839;48.546;-4.178;2022-11-03T03:52:14;5.32;;;1.10;;
62796;SDS011;48839;48.546;-4.178;2022-11-03T03:54:40;1.67;;;1.15;;
62796;SDS011;48839;48.546;-4.178;2022-11-03T03:57:08;1.05;;;0.90;;
62796;SDS011;48839;48.546;-4.178;2022-11-03T03:59:36;4.13;;;1.20;;
62796;SDS011;48839;48.546;-4.178;2022-11-03T04:02:02;3.63;;;0.68;;
62796;SDS011;48839;48.546;-4.178;2022-11-03T04:04:28;3.25;;;0.77;;
62796;SDS011;48839;48.546;-4.178;2022-11-03T04:06:54;2.55;;;0.90;;
62796;SDS011;48839;48.546;-4.178;2022-11-03T04:09:38;1.23;;;1.13;;
62796;SDS011;48839;48.546;-4.178;2022-11-03T04:12:04;1.50;;;1.00;;
62796;SDS011;48839;48.546;-4.178;2022-11-03T04:14:49;2.67;;;1.10;;
62796;SDS011;48839;48.546;-4.178;2022-11-03T04:17:34;4.25;;;0.98;;
62796;SDS011;48839;48.546;-4.178;2022-11-03T04:20:19;2.88;;;1.77;;
62796;SDS011;48839;48.546;-4.178;2022-11-03T04:23:03;2.80;;;0.73;;
62796;SDS011;48839;48.546;-4.178;2022-11-03T04:25:29;3.70;;;0.70;;
62796;SDS011;48839;48.546;-4.178;2022-11-03T04:27:55;2.25;;;0.70;;
62796;SDS011;48839;48.546;-4.178;2022-11-03T04:30:22;3.70;;;0.60;;
62796;SDS011;48839;48.546;-4.178;2022-11-03T04:32:50;7.28;;;0.75;;
62796;SDS011;48839;48.546;-4.178;2022-11-03T04:35:24;0.95;;;0.77;;
62796;SDS011;48839;48.546;-4.178;2022-11-03T04:37:55;4.18;;;0.63;;
62796;SDS011;48839;48.546;-4.178;2022-11-03T04:40:23;2.70;;;0.65;;
62796;SDS011;48839;48.546;-4.178;2022-11-03T04:42:49;3.00;;;0.60;;
62796;SDS011;48839;48.546;-4.178;2022-11-03T04:47:41;1.00;;;0.70;;
62796;SDS011;48839;48.546;-4.178;2022-11-03T04:50:10;1.05;;;0.80;;
62796;SDS011;48839;48.546;-4.178;2022-11-03T04:52:39;0.60;;;0.60;;
62796;SDS011;48839;48.546;-4.178;2022-11-03T04:55:07;0.65;;;0.60;;
62796;SDS011;48839;48.546;-4.178;2022-11-03T04:57:35;1.00;;;0.85;;
62796;SDS011;48839;48.546;-4.178;2022-11-03T05:00:01;2.20;;;0.68;;
62796;SDS011;48839;48.546;-4.178;2022-11-03T05:02:27;1.08;;;0.70;;
62796;SDS011;48839;48.546;-4.178;2022-11-03T05:04:53;0.98;;;0.82;;
62796;SDS011;48839;48.546;-4.178;2022-11-03T05:07:25;5.20;;;0.70;;
62796;SDS011;48839;48.546;-4.178;2022-11-03T05:09:53;2.10;;;0.70;;
62796;SDS011;48839;48.546;-4.178;2022-11-03T05:12:19;3.28;;;0.52;;
62796;SDS011;48839;48.546;-4.178;2022-11-03T05:14:46;1.13;;;0.60;;
62796;SDS011;48839;48.546;-4.178;2022-11-03T05:17:22;1.50;;;0.40;;
62796;SDS011;48839;48.546;-4.178;2022-11-03T05:19:49;0.70;;;0.40;;
62796;SDS011;48839;48.546;-4.178;2022-11-03T05:22:17;2.38;;;0.70;;
62796;SDS011;48839;48.546;-4.178;2022-11-03T05:24:44;1.77;;;0.50;;
62796;SDS011;48839;48.546;-4.178;2022-11-03T05:27:19;0.43;;;0.43;;
62796;SDS011;48839;48.546;-4.178;2022-11-03T05:29:46;3.70;;;0.60;;
62796;SDS011;48839;48.546;-4.178;2022-11-03T05:32:23;2.70;;;0.52;;
62796;SDS011;48839;48.546;-4.178;2022-11-03T05:34:50;1.95;;;0.60;;
62796;SDS011;48839;48.546;-4.178;2022-11-03T05:39:43;1.83;;;0.52;;
62796;SDS011;48839;48.546;-4.178;2022-11-03T05:44:51;2.10;;;0.55;;
62796;SDS011;48839;48.546;-4.178;2022-11-03T05:47:20;2.10;;;0.75;;
62796;SDS011;48839;48.546;-4.178;2022-11-03T05:49:49;0.93;;;0.60;;
62796;SDS011;48839;48.546;-4.178;2022-11-03T05:52:26;0.98;;;0.40;;
62796;SDS011;48839;48.546;-4.178;2022-11-03T05:54:53;1.92;;;0.50;;
62796;SDS011;48839;48.546;-4.178;2022-11-03T05:57:20;2.10;;;0.60;;
62796;SDS011;48839;48.546;-4.178;2022-11-03T05:59:47;3.40;;;0.60;;
62796;SDS011;48839;48.546;-4.178;2022-11-03T06:02:37;1.00;;;0.40;;
62796;SDS011;48839;48.546;-4.178;2022-11-03T06:05:00;1.45;;;0.90;;
62796;SDS011;48839;48.546;-4.178;2022-11-03T06:07:28;0.73;;;0.55;;
62796;SDS011;48839;48.546;-4.178;2022-11-03T06:09:54;1.08;;;0.50;;
62796;SDS011;48839;48.546;-4.178;2022-11-03T06:12:21;0.60;;;0.50;;
62796;SDS011;48839;48.546;-4.178;2022-11-03T06:14:48;4.43;;;1.10;;
62796;SDS011;48839;48.546;-4.178;2022-11-03T06:17:21;1.85;;;0.60;;
62796;SDS011;48839;48.546;-4.178;2022-11-03T06:19:48;0.68;;;0.68;;
62796;SDS011;48839;48.546;-4.178;2022-11-03T06:22:19;3.72;;;0.50;;
62796;SDS011;48839;48.546;-4.178;2022-11-03T06:24:48;2.92;;;0.55;;
62796;SDS011;48839;48.546;-4.178;2022-11-03T06:27:15;2.08;;;0.63;;
62796;SDS011;48839;48.546;-4.178;2022-11-03T06:29:44;2.22;;;0.50;;
62796;SDS011;48839;48.546;-4.178;2022-11-03T06:32:12;6.60;;;0.75;;
62796;SDS011;48839;48.546;-4.178;2022-11-03T06:37:18;2.20;;;0.80;;
62796;SDS011;48839;48.546;-4.178;2022-11-03T06:39:44;1.63;;;0.70;;
62796;SDS011;48839;48.546;-4.178;2022-11-03T06:42:11;1.08;;;0.60;;
62796;SDS011;48839;48.546;-4.178;2022-11-03T06:44:44;3.42;;;1.52;;
62796;SDS011;48839;48.546;-4.178;2022-11-03T06:47:14;2.97;;;0.60;;
62796;SDS011;48839;48.546;-4.178;2022-11-03T06:49:41;4.13;;;0.80;;
62796;SDS011;48839;48.546;-4.178;2022-11-03T06:52:14;0.60;;;0.60;;
62796;SDS011;48839;48.546;-4.178;2022-11-03T06:54:49;3.20;;;0.90;;
62796;SDS011;48839;48.546;-4.178;2022-11-03T06:57:15;4.50;;;1.10;;
62796;SDS011;48839;48.546;-4.178;2022-11-03T06:59:42;4.63;;;1.52;;
62796;SDS011;48839;48.546;-4.178;2022-11-03T07:05:01;4.70;;;1.20;;
62796;SDS011;48839;48.546;-4.178;2022-11-03T07:07:30;2.40;;;1.13;;
62796;SDS011;48839;48.546;-4.178;2022-11-03T07:09:56;3.60;;;1.63;;
62796;SDS011;48839;48.546;-4.178;2022-11-03T07:12:22;4.78;;;1.23;;
62796;SDS011;48839;48.546;-4.178;2022-11-03T07:14:48;2.15;;;1.02;;
62796;SDS011;48839;48.546;-4.178;2022-11-03T07:17:15;3.28;;;1.08;;
62796;SDS011;48839;48.546;-4.178;2022-11-03T07:19:45;7.32;;;1.30;;
62796;SDS011;48839;48.546;-4.178;2022-11-03T07:22:15;5.53;;;1.30;;
62796;SDS011;48839;48.546;-4.178;2022-11-03T07:24:45;3.97;;;0.75;;
62796;SDS011;48839;48.546;-4.178;2022-11-03T07:27:18;5.03;;;1.00;;
62796;SDS011;48839;48.546;-4.178;2022-11-03T07:29:45;8.27;;;1.75;;
62796;SDS011;48839;48.546;-4.178;2022-11-03T07:32:17;7.43;;;2.25;;
62796;SDS011;48839;48.546;-4.178;2022-11-03T07:34:43;3.88;;;1.20;;
62796;SDS011;48839;48.546;-4.178;2022-11-03T07:37:13;6.93;;;1.60;;
62796;SDS011;48839;48.546;-4.178;2022-11-03T07:39:39;4.68;;;1.73;;
62796;SDS011;48839;48.546;-4.178;2022-11-03T07:44:44;7.68;;;2.70;;
62796;SDS011;48839;48.546;-4.178;2022-11-03T07:47:11;3.22;;;1.05;;
62796;SDS011;48839;48.546;-4.178;2022-11-03T07:49:38;1.42;;;0.80;;
62796;SDS011;48839;48.546;-4.178;2022-11-03T07:52:06;2.47;;;0.93;;
62796;SDS011;48839;48.546;-4.178;2022-11-03T07:54:33;2.63;;;1.10;;
62796;SDS011;48839;48.546;-4.178;2022-11-03T07:57:00;5.53;;;1.08;;
62796;SDS011;48839;48.546;-4.178;2022-11-03T07:59:32;4.32;;;1.08;;
62796;SDS011;48839;48.546;-4.178;2022-11-03T08:02:00;4.97;;;1.48;;
62796;SDS011;48839;48.546;-4.178;2022-11-03T08:04:28;2.50;;;1.00;;
62796;SDS011;48839;48.546;-4.178;2022-11-03T08:06:54;3.22;;;1.05;;
62796;SDS011;48839;48.546;-4.178;2022-11-03T08:09:21;1.65;;;0.95;;
62796;SDS011;48839;48.546;-4.178;2022-11-03T08:11:47;1.90;;;0.80;;
62796;SDS011;48839;48.546;-4.178;2022-11-03T08:14:15;4.30;;;1.00;;
62796;SDS011;48839;48.546;-4.178;2022-11-03T08:16:41;1.50;;;0.80;;
62796;SDS011;48839;48.546;-4.178;2022-11-03T08:19:07;3.80;;;0.95;;
62796;SDS011;48839;48.546;-4.178;2022-11-03T08:21:33;4.88;;;0.98;;
62796;SDS011;48839;48.546;-4.178;2022-11-03T08:23:59;6.18;;;0.88;;
62796;SDS011;48839;48.546;-4.178;2022-11-03T08:26:25;5.28;;;1.13;;
62796;SDS011;48839;48.546;-4.178;2022-11-03T08:28:51;7.25;;;1.25;;
62796;SDS011;48839;48.546;-4.178;2022-11-03T08:31:17;3.97;;;0.90;;
62796;SDS011;48839;48.546;-4.178;2022-11-03T08:33:43;4.43;;;1.77;;
62796;SDS011;48839;48.546;-4.178;2022-11-03T08:36:09;5.47;;;2.10;;
62796;SDS011;48839;48.546;-4.178;2022-11-03T08:38:36;9.18;;;1.80;;
62796;SDS011;48839;48.546;-4.178;2022-11-03T08:41:02;5.28;;;1.05;;
62796;SDS011;48839;48.546;-4.178;2022-11-03T08:43:28;6.63;;;1.48;;
62796;SDS011;48839;48.546;-4.178;2022-11-03T08:45:54;4.55;;;1.00;;
62796;SDS011;48839;48.546;-4.178;2022-11-03T08:48:20;2.72;;;1.42;;
62796;SDS011;48839;48.546;-4.178;2022-11-03T08:50:46;4.68;;;1.10;;
62796;SDS011;48839;48.546;-4.178;2022-11-03T08:53:14;5.85;;;1.55;;
62796;SDS011;48839;48.546;-4.178;2022-11-03T08:55:40;3.92;;;1.10;;
62796;SDS011;48839;48.546;-4.178;2022-11-03T08:58:06;4.68;;;1.23;;
62796;SDS011;48839;48.546;-4.178;2022-11-03T09:00:32;6.10;;;1.40;;
62796;SDS011;48839;48.546;-4.178;2022-11-03T09:03:00;2.45;;;1.02;;
62796;SDS011;48839;48.546;-4.178;2022-11-03T09:05:26;3.05;;;1.15;;
62796;SDS011;48839;48.546;-4.178;2022-11-03T09:07:52;6.72;;;1.10;;
62796;SDS011;48839;48.546;-4.178;2022-11-03T09:10:18;7.72;;;1.60;;
62796;SDS011;48839;48.546;-4.178;2022-11-03T09:12:44;11.30;;;1.40;;
62796;SDS011;48839;48.546;-4.178;2022-11-03T09:15:10;2.58;;;1.00;;
62796;SDS011;48839;48.546;-4.178;2022-11-03T09:17:36;7.75;;;1.38;;
62796;SDS011;48839;48.546;-4.178;2022-11-03T09:20:03;6.45;;;1.00;;
62796;SDS011;48839;48.546;-4.178;2022-11-03T09:22:29;5.75;;;1.38;;
62796;SDS011;48839;48.546;-4.178;2022-11-03T09:24:56;4.30;;;2.08;;
62796;SDS011;48839;48.546;-4.178;2022-11-03T09:27:22;6.35;;;1.27;;
62796;SDS011;48839;48.546;-4.178;2022-11-03T09:29:48;4.82;;;1.15;;
62796;SDS011;48839;48.546;-4.178;2022-11-03T09:32:14;4.82;;;1.63;;
62796;SDS011;48839;48.546;-4.178;2022-11-03T09:34:40;6.78;;;1.38;;
62796;SDS011;48839;48.546;-4.178;2022-11-03T09:37:06;3.22;;;1.25;;
62796;SDS011;48839;48.546;-4.178;2022-11-03T09:39:32;28.42;;;19.27;;
62796;SDS011;48839;48.546;-4.178;2022-11-03T09:41:58;35.72;;;18.45;;
62796;SDS011;48839;48.546;-4.178;2022-11-03T09:44:27;15.82;;;11.00;;
62796;SDS011;48839;48.546;-4.178;2022-11-03T09:46:53;9.35;;;5.65;;
62796;SDS011;48839;48.546;-4.178;2022-11-03T09:49:19;14.20;;;9.18;;
62796;SDS011;48839;48.546;-4.178;2022-11-03T09:51:46;11.30;;;3.72;;
62796;SDS011;48839;48.546;-4.178;2022-11-03T09:54:13;11.80;;;2.83;;
62796;SDS011;48839;48.546;-4.178;2022-11-03T09:56:40;9.45;;;3.40;;
62796;SDS011;48839;48.546;-4.178;2022-11-03T09:59:12;10.77;;;5.60;;
62796;SDS011;48839;48.546;-4.178;2022-11-03T10:01:39;5.60;;;1.90;;
62796;SDS011;48839;48.546;-4.178;2022-11-03T10:04:07;6.95;;;3.47;;
62796;SDS011;48839;48.546;-4.178;2022-11-03T10:06:34;11.10;;;3.80;;
62796;SDS011;48839;48.546;-4.178;2022-11-03T10:09:00;9.98;;;1.90;;
62796;SDS011;48839;48.546;-4.178;2022-11-03T10:11:26;8.63;;;3.65;;
62796;SDS011;48839;48.546;-4.178;2022-11-03T10:13:53;10.93;;;1.90;;
62796;SDS011;48839;48.546;-4.178;2022-11-03T10:16:20;9.50;;;2.05;;
62796;SDS011;48839;48.546;-4.178;2022-11-03T10:18:47;9.30;;;1.98;;
62796;SDS011;48839;48.546;-4.178;2022-11-03T10:21:14;11.63;;;1.73;;
62796;SDS011;48839;48.546;-4.178;2022-11-03T10:23:40;5.82;;;1.77;;
62796;SDS011;48839;48.546;-4.178;2022-11-03T10:28:35;7.72;;;1.60;;
62796;SDS011;48839;48.546;-4.178;2022-11-03T10:31:02;10.90;;;1.50;;
62796;SDS011;48839;48.546;-4.178;2022-11-03T10:33:33;10.52;;;1.88;;
62796;SDS011;48839;48.546;-4.178;2022-11-03T10:36:01;7.97;;;2.33;;
62796;SDS011;48839;48.546;-4.178;2022-11-03T10:38:36;12.00;;;2.20;;
62796;SDS011;48839;48.546;-4.178;2022-11-03T10:41:09;11.07;;;5.32;;
62796;SDS011;48839;48.546;-4.178;2022-11-03T10:46:18;7.35;;;3.05;;
62796;SDS011;48839;48.546;-4.178;2022-11-03T10:48:48;8.75;;;4.38;;
62796;SDS011;48839;48.546;-4.178;2022-11-03T10:51:24;7.95;;;3.03;;
62796;SDS011;48839;48.546;-4.178;2022-11-03T10:53:50;8.15;;;2.75;;
62796;SDS011;48839;48.546;-4.178;2022-11-03T10:56:16;9.98;;;2.78;;
62796;SDS011;48839;48.546;-4.178;2022-11-03T10:58:42;7.55;;;1.98;;
62796;SDS011;48839;48.546;-4.178;2022-11-03T11:01:08;6.47;;;2.00;;
62796;SDS011;48839;48.546;-4.178;2022-11-03T11:03:37;10.90;;;5.00;;
62796;SDS011;48839;48.546;-4.178;2022-11-03T11:06:04;7.22;;;1.70;;
62796;SDS011;48839;48.546;-4.178;2022-11-03T11:08:30;10.60;;;2.45;;
62796;SDS011;48839;48.546;-4.178;2022-11-03T11:10:56;4.22;;;1.25;;
62796;SDS011;48839;48.546;-4.178;2022-11-03T11:13:23;7.07;;;2.30;;
62796;SDS011;48839;48.546;-4.178;2022-11-03T11:15:57;5.47;;;1.67;;
62796;SDS011;48839;48.546;-4.178;2022-11-03T11:21:48;8.52;;;1.48;;
62796;SDS011;48839;48.546;-4.178;2022-11-03T11:23:45;6.53;;;2.15;;
62796;SDS011;48839;48.546;-4.178;2022-11-03T11:26:31;8.13;;;2.35;;
62796;SDS011;48839;48.546;-4.178;2022-11-03T11:31:37;8.25;;;3.75;;
62796;SDS011;48839;48.546;-4.178;2022-11-03T11:42:08;26.73;;;14.25;;
62796;SDS011;48839;48.546;-4.178;2022-11-03T11:49:35;21.58;;;11.50;;
62796;SDS011;48839;48.546;-4.178;2022-11-03T11:52:01;13.80;;;6.47;;
62796;SDS011;48839;48.546;-4.178;2022-11-03T11:54:27;17.40;;;6.60;;
62796;SDS011;48839;48.546;-4.178;2022-11-03T11:56:53;24.13;;;14.70;;
62796;SDS011;48839;48.546;-4.178;2022-11-03T11:59:22;16.48;;;5.63;;
62796;SDS011;48839;48.546;-4.178;2022-11-03T12:01:49;16.17;;;7.50;;
62796;SDS011;48839;48.546;-4.178;2022-11-03T12:04:21;9.43;;;5.65;;
62796;SDS011;48839;48.546;-4.178;2022-11-03T12:06:47;14.38;;;9.82;;
62796;SDS011;48839;48.546;-4.178;2022-11-03T12:09:17;10.65;;;1.50;;
62796;SDS011;48839;48.546;-4.178;2022-11-03T12:16:47;7.20;;;2.20;;
62796;SDS011;48839;48.546;-4.178;2022-11-03T12:21:59;12.77;;;1.95;;
62796;SDS011;48839;48.546;-4.178;2022-11-03T12:26:57;6.60;;;2.40;;
62796;SDS011;48839;48.546;-4.178;2022-11-03T12:29:24;10.73;;;1.88;;
62796;SDS011;48839;48.546;-4.178;2022-11-03T12:31:50;5.43;;;1.27;;
62796;SDS011;48839;48.546;-4.178;2022-11-03T12:34:17;4.78;;;1.48;;
62796;SDS011;48839;48.546;-4.178;2022-11-03T12:36:43;6.63;;;1.90;;
62796;SDS011;48839;48.546;-4.178;2022-11-03T12:39:09;4.90;;;1.75;;
62796;SDS011;48839;48.546;-4.178;2022-11-03T12:41:35;7.43;;;1.60;;
62796;SDS011;48839;48.546;-4.178;2022-11-03T12:44:02;7.43;;;1.30;;
62796;SDS011;48839;48.546;-4.178;2022-11-03T12:46:28;8.88;;;1.80;;
62796;SDS011;48839;48.546;-4.178;2022-11-03T12:48:54;8.40;;;2.00;;
62796;SDS011;48839;48.546;-4.178;2022-11-03T12:51:20;7.57;;;1.38;;
62796;SDS011;48839;48.546;-4.178;2022-11-03T12:53:46;2.85;;;1.52;;
62796;SDS011;48839;48.546;-4.178;2022-11-03T12:56:13;11.30;;;3.00;;
62796;SDS011;48839;48.546;-4.178;2022-11-03T12:58:40;4.32;;;1.42;;
62796;SDS011;48839;48.546;-4.178;2022-11-03T13:01:06;8.07;;;1.75;;
62796;SDS011;48839;48.546;-4.178;2022-11-03T13:03:33;7.18;;;1.80;;
62796;SDS011;48839;48.546;-4.178;2022-11-03T13:05:59;6.03;;;1.58;;
62796;SDS011;48839;48.546;-4.178;2022-11-03T13:08:28;7.95;;;2.40;;
62796;SDS011;48839;48.546;-4.178;2022-11-03T13:10:54;8.55;;;2.08;;
62796;SDS011;48839;48.546;-4.178;2022-11-03T13:13:20;4.55;;;1.73;;
62796;SDS011;48839;48.546;-4.178;2022-11-03T13:15:46;8.65;;;2.50;;
62796;SDS011;48839;48.546;-4.178;2022-11-03T13:18:12;10.20;;;2.72;;
62796;SDS011;48839;48.546;-4.178;2022-11-03T13:20:38;11.40;;;2.08;;
62796;SDS011;48839;48.546;-4.178;2022-11-03T13:23:04;8.88;;;2.78;;
62796;SDS011;48839;48.546;-4.178;2022-11-03T13:25:31;6.40;;;1.92;;
62796;SDS011;48839;48.546;-4.178;2022-11-03T13:27:57;11.88;;;2.63;;
62796;SDS011;48839;48.546;-4.178;2022-11-03T13:30:24;14.50;;;7.22;;
62796;SDS011;48839;48.546;-4.178;2022-11-03T13:32:50;21.58;;;10.57;;
62796;SDS011;48839;48.546;-4.178;2022-11-03T13:35:16;61.55;;;27.85;;
62796;SDS011;48839;48.546;-4.178;2022-11-03T13:37:42;41.83;;;20.63;;
62796;SDS011;48839;48.546;-4.178;2022-11-03T13:40:09;12.93;;;2.63;;
62796;SDS011;48839;48.546;-4.178;2022-11-03T13:42:36;6.75;;;2.95;;
62796;SDS011;48839;48.546;-4.178;2022-11-03T13:45:02;13.50;;;3.50;;
62796;SDS011;48839;48.546;-4.178;2022-11-03T13:47:28;10.13;;;2.58;;
62796;SDS011;48839;48.546;-4.178;2022-11-03T13:49:54;9.82;;;4.30;;
62796;SDS011;48839;48.546;-4.178;2022-11-03T13:52:20;8.65;;;2.60;;
62796;SDS011;48839;48.546;-4.178;2022-11-03T13:54:49;10.95;;;2.78;;
62796;SDS011;48839;48.546;-4.178;2022-11-03T13:57:16;11.68;;;2.75;;
62796;SDS011;48839;48.546;-4.178;2022-11-03T13:59:42;6.25;;;1.75;;
62796;SDS011;48839;48.546;-4.178;2022-11-03T14:02:08;8.95;;;2.10;;
62796;SDS011;48839;48.546;-4.178;2022-11-03T14:04:35;6.47;;;1.58;;
62796;SDS011;48839;48.546;-4.178;2022-11-03T14:07:02;6.03;;;1.60;;
62796;SDS011;48839;48.546;-4.178;2022-11-03T14:09:28;12.35;;;1.75;;
62796;SDS011;48839;48.546;-4.178;2022-11-03T14:11:54;9.07;;;1.63;;
62796;SDS011;48839;48.546;-4.178;2022-11-03T14:14:39;10.35;;;1.83;;
62796;SDS011;48839;48.546;-4.178;2022-11-03T14:17:06;12.18;;;2.40;;
62796;SDS011;48839;48.546;-4.178;2022-11-03T14:19:32;7.85;;;2.10;;
62796;SDS011;48839;48.546;-4.178;2022-11-03T14:21:58;6.45;;;1.80;;
62796;SDS011;48839;48.546;-4.178;2022-11-03T14:24:24;5.60;;;2.05;;
62796;SDS011;48839;48.546;-4.178;2022-11-03T14:26:50;14.73;;;2.30;;
62796;SDS011;48839;48.546;-4.178;2022-11-03T14:29:16;10.98;;;2.30;;
62796;SDS011;48839;48.546;-4.178;2022-11-03T14:31:42;12.52;;;1.80;;
62796;SDS011;48839;48.546;-4.178;2022-11-03T14:34:08;8.35;;;1.77;;
62796;SDS011;48839;48.546;-4.178;2022-11-03T14:36:34;11.52;;;1.88;;
62796;SDS011;48839;48.546;-4.178;2022-11-03T14:39:00;5.78;;;2.10;;
62796;SDS011;48839;48.546;-4.178;2022-11-03T14:41:26;11.73;;;2.00;;
62796;SDS011;48839;48.546;-4.178;2022-11-03T14:44:10;12.80;;;2.75;;
62796;SDS011;48839;48.546;-4.178;2022-11-03T14:46:37;13.25;;;2.03;;
62796;SDS011;48839;48.546;-4.178;2022-11-03T14:49:03;9.27;;;2.47;;
62796;SDS011;48839;48.546;-4.178;2022-11-03T14:51:29;10.48;;;2.40;;
62796;SDS011;48839;48.546;-4.178;2022-11-03T14:53:55;11.80;;;2.75;;
62796;SDS011;48839;48.546;-4.178;2022-11-03T14:56:22;8.55;;;3.03;;
62796;SDS011;48839;48.546;-4.178;2022-11-03T14:58:48;12.52;;;3.63;;
62796;SDS011;48839;48.546;-4.178;2022-11-03T15:01:15;14.48;;;2.63;;
62796;SDS011;48839;48.546;-4.178;2022-11-03T15:03:41;14.45;;;2.28;;
62796;SDS011;48839;48.546;-4.178;2022-11-03T15:06:08;11.20;;;2.85;;
62796;SDS011;48839;48.546;-4.178;2022-11-03T15:08:34;10.55;;;2.20;;
62796;SDS011;48839;48.546;-4.178;2022-11-03T15:11:01;11.57;;;2.65;;
62796;SDS011;48839;48.546;-4.178;2022-11-03T15:13:27;12.52;;;2.90;;
62796;SDS011;48839;48.546;-4.178;2022-11-03T15:15:53;16.90;;;4.05;;
62796;SDS011;48839;48.546;-4.178;2022-11-03T15:18:19;11.80;;;2.40;;
62796;SDS011;48839;48.546;-4.178;2022-11-03T15:20:45;11.43;;;2.58;;
62796;SDS011;48839;48.546;-4.178;2022-11-03T15:23:11;19.10;;;3.13;;
62796;SDS011;48839;48.546;-4.178;2022-11-03T15:25:37;17.75;;;2.83;;
62796;SDS011;48839;48.546;-4.178;2022-11-03T15:28:03;13.27;;;2.92;;
62796;SDS011;48839;48.546;-4.178;2022-11-03T15:30:29;18.95;;;3.75;;
62796;SDS011;48839;48.546;-4.178;2022-11-03T15:32:55;15.40;;;2.65;;
62796;SDS011;48839;48.546;-4.178;2022-11-03T15:35:21;9.20;;;1.67;;
62796;SDS011;48839;48.546;-4.178;2022-11-03T15:37:47;7.65;;;1.65;;
62796;SDS011;48839;48.546;-4.178;2022-11-03T15:40:14;6.47;;;1.50;;